»·PEaware :: N475RS KVNY-KOAK

N475RS :: KVNY-KOAK

FLIGHT INFORMATION

Flight Status: Arrived
Operator: Privately registered:
United States
More flights under this callsign
Pilot: Aker J. (16898)
Aircraft: CESSNA 550 CITATION 2/S2/BRAVO
(C550)
More flights by this aircraft type
Origin: KVNY Van Nuys
United States
Destination: KOAK Metro Oakland Intl
United States
More flights between these airports :: More routes between these airports
Route: +CANOG2 AVE RGOOD EZMOH3
File this flight plan on PilotEdge
Remarks:
Altitude:
(Current/Filed)
31,000ft
Speed:
(Current/Filed)
350kts
Departed: 24-Dec-17 01:45 PM
Arrived: 24-Dec-17 02:56 PM
Distance/Time
Traveled:
278nm/1:10
Distance/Time
To Go:
Arrived

Flight Plot

Page will automatically refresh every two minutes.

Flight plan parsing failed; only flown route is shown


Map Options




Map Legend


Flown Route
Filed Route
Departure Airport
Arrival Airport
Navaid (VOR, NDB)
Fix

Horizontal Profiles

Position Reports

Time Latitude Longitude Heading Altitude Ground
Speed
24-Dec-17 13:30 34.215097 -118.488284 91 806ft 0kts
24-Dec-17 13:31 34.215097 -118.488284 91 806ft 0kts
24-Dec-17 13:32 34.215097 -118.488283 91 806ft 0kts
24-Dec-17 13:33 34.215097 -118.488283 91 806ft 0kts
24-Dec-17 13:34 34.215097 -118.488283 91 806ft 0kts
24-Dec-17 13:35 34.215097 -118.488283 91 806ft 0kts
24-Dec-17 13:36 34.215097 -118.488283 91 806ft 0kts
24-Dec-17 13:37 34.215097 -118.488283 91 806ft 0kts
24-Dec-17 13:38 34.215097 -118.488283 91 806ft 0kts
24-Dec-17 13:39 34.215097 -118.488283 91 806ft 0kts
24-Dec-17 13:40 34.215097 -118.488283 91 806ft 0kts
24-Dec-17 13:41 34.215097 -118.488283 91 806ft 0kts
24-Dec-17 13:42 34.215097 -118.488283 91 806ft 0kts
24-Dec-17 13:43 34.215097 -118.488283 91 806ft 0kts
24-Dec-17 13:44 34.215097 -118.488283 91 806ft 0kts
24-Dec-17 13:45 34.215162 -118.488333 91 806ft 0kts
24-Dec-17 13:46 34.215182 -118.486349 86 806ft 11kts
24-Dec-17 13:47 34.216032 -118.488325 266 806ft 17kts
24-Dec-17 13:48 34.218150 -118.490075 275 806ft 12kts
24-Dec-17 13:49 34.218164 -118.490201 270 806ft 0kts
24-Dec-17 13:50 34.218149 -118.490327 260 806ft 6kts
24-Dec-17 13:51 34.212060 -118.490564 175 806ft 96kts
24-Dec-17 13:52 34.169057 -118.487104 176 1892ft 153kts
24-Dec-17 13:53 34.125801 -118.500090 234 3629ft 213kts
24-Dec-17 13:54 34.097224 -118.526847 216 3473ft 198kts
24-Dec-17 13:55 34.074213 -118.581280 291 3522ft 195kts
24-Dec-17 13:56 34.132502 -118.603259 352 5287ft 269kts
24-Dec-17 13:57 34.205057 -118.613641 351 6585ft 267kts
24-Dec-17 13:58 34.279617 -118.623845 351 8580ft 270kts
24-Dec-17 13:59 34.354020 -118.632413 351 10576ft 265kts
24-Dec-17 14:00 34.426440 -118.638184 351 12563ft 257kts
24-Dec-17 14:01 34.483996 -118.690546 312 14615ft 276kts
24-Dec-17 14:02 34.552373 -118.737641 332 16637ft 281kts
24-Dec-17 14:03 34.623630 -118.771683 332 18625ft 269kts
24-Dec-17 14:04 34.698957 -118.809152 331 20651ft 315kts
24-Dec-17 14:05 34.784156 -118.853139 327 22674ft 329kts
24-Dec-17 14:06 34.862415 -118.910384 322 24325ft 324kts
24-Dec-17 14:07 34.935775 -118.968477 320 26345ft 304kts
24-Dec-17 14:08 34.992494 -119.014269 320 28136ft 280kts
24-Dec-17 14:09 35.065328 -119.075386 318 30489ft 271kts
24-Dec-17 14:10 35.131036 -119.130220 319 31265ft 314kts
24-Dec-17 14:11 35.199674 -119.187305 320 31256ft 359kts
24-Dec-17 14:12 35.270578 -119.245901 320 31240ft 377kts
24-Dec-17 14:13 35.371920 -119.329343 320 31223ft 371kts
24-Dec-17 14:14 35.456819 -119.399792 320 31223ft 367kts
24-Dec-17 14:15 35.527473 -119.459703 316 31225ft 373kts
24-Dec-17 14:16 35.577303 -119.590066 283 31228ft 366kts
24-Dec-17 14:17 35.595997 -119.691691 281 31234ft 366kts
24-Dec-17 14:18 35.618882 -119.813972 291 31235ft 368kts
24-Dec-17 14:19 35.705062 -119.884042 337 31253ft 395kts
24-Dec-17 14:20 35.817537 -119.886819 4 31258ft 421kts
24-Dec-17 14:21 35.930585 -119.863560 333 31253ft 393kts
24-Dec-17 14:22 36.011844 -119.946202 307 30563ft 374kts
24-Dec-17 14:23 36.081139 -120.039673 308 30034ft 365kts
24-Dec-17 14:24 36.151678 -120.129178 310 29731ft 361kts
24-Dec-17 14:25 36.223080 -120.216399 310 29431ft 361kts
24-Dec-17 14:26 36.295303 -120.303436 310 29131ft 362kts
24-Dec-17 14:27 36.367507 -120.390350 310 28832ft 362kts
24-Dec-17 14:28 36.439874 -120.477601 310 28532ft 363kts
24-Dec-17 14:29 36.512584 -120.565447 311 28282ft 363kts
24-Dec-17 14:30 36.586963 -120.649884 312 28275ft 361kts
24-Dec-17 14:31 36.659355 -120.730189 312 26712ft 354kts
24-Dec-17 14:32 36.735475 -120.815174 312 24826ft 367kts
24-Dec-17 14:33 36.811087 -120.898576 312 23721ft 356kts
24-Dec-17 14:34 36.884709 -120.980309 312 21632ft 342kts
24-Dec-17 14:35 36.953494 -121.056762 311 20257ft 301kts
24-Dec-17 14:36 37.012109 -121.122494 310 19217ft 282kts
24-Dec-17 14:37 37.071166 -121.188964 311 17517ft 286kts
24-Dec-17 14:38 37.128421 -121.257645 304 15822ft 273kts
24-Dec-17 14:39 37.156886 -121.327529 263 14342ft 251kts
24-Dec-17 14:40 37.107554 -121.361975 163 12872ft 307kts
24-Dec-17 14:41 37.049796 -121.278564 100 11225ft 333kts
24-Dec-17 14:42 37.095543 -121.217169 339 9564ft 245kts
24-Dec-17 14:43 37.128210 -121.276210 291 9370ft 195kts
24-Dec-17 14:44 37.155094 -121.347300 294 8921ft 276kts
24-Dec-17 14:45 37.191319 -121.432774 299 8420ft 267kts
24-Dec-17 14:46 37.238569 -121.504353 313 7924ft 267kts
24-Dec-17 14:47 37.294707 -121.566373 318 7417ft 269kts
24-Dec-17 14:48 37.353322 -121.625982 319 6719ft 273kts
24-Dec-17 14:49 37.418200 -121.663080 346 6023ft 239kts
24-Dec-17 14:50 37.480886 -121.695144 328 5332ft 239kts
24-Dec-17 14:51 37.534365 -121.741830 322 5100ft 228kts
24-Dec-17 14:52 37.584315 -121.789722 320 5104ft 224kts
24-Dec-17 14:53 37.610580 -121.835769 291 5109ft 227kts
24-Dec-17 14:54 37.629475 -121.905303 286 4594ft 220kts
24-Dec-17 14:55 37.641085 -121.946496 290 4212ft 211kts
24-Dec-17 14:56 37.659913 -122.004835 291 3320ft 152kts
24-Dec-17 14:57 37.674984 -122.051162 291 2622ft 139kts
24-Dec-17 14:58 37.689743 -122.096439 292 1928ft 139kts
24-Dec-17 14:59 37.702381 -122.129441 294 1507ft 134kts
24-Dec-17 15:00 37.709269 -122.156427 289 1237ft 131kts
24-Dec-17 15:01 37.722550 -122.196995 290 268ft 116kts
24-Dec-17 15:02 37.729609 -122.220179 242 10ft 0kts
24-Dec-17 15:03 37.729451 -122.220582 249 10ft 0kts
24-Dec-17 15:04 37.729488 -122.221803 324 10ft 6kts
24-Dec-17 15:05 37.729720 -122.221884 356 10ft 0kts
24-Dec-17 15:06 37.729721 -122.221884 356 10ft 0kts
24-Dec-17 15:07 37.729721 -122.221884 356 10ft 0kts
24-Dec-17 15:08 37.729722 -122.221884 356 10ft 0kts
24-Dec-17 15:09 37.729724 -122.221884 356 10ft 0kts
24-Dec-17 15:10 37.729727 -122.221885 356 10ft 0kts

Navigation Log

Ident Type
Flight plan parsing failed, navigation log unavailable